Portada
METAR-TAF:

METAR-TAF

Aeroports :

Sevilla, Espanya

latitud: 37-25N, longitud: 005-54W, altitud: 34 m

Observació

L'informe es va fer fa 42 minuts, a les 20:00 UTC
Vent 13 kt del Oest/Sud-Oest, variant entre Sud-Oest i Oest
Temperatura 23°C
Humitat 47%
Pressió 1009 hPa
Visibilitat 10 km o més
sense núvols per sota de 1500 mi sense presència de cumulonimbus.

METAR: LEZL 062000Z 25013KT 220V280 CAVOK 23/11 Q1009 NOSIG

Hora: 22:42 (20:42 UTC)

Pronòstic

L'informe es va fer fa 42 minuts, a les 20:00 UTC
Pronòstic vàlid del 06 a les 21 UTC al 07 a les 21 UTC
Vent 9 kt del Sud-Oest
Visibilitat 10 km o més
Escasses núvols a una alçada de 3500 ft

TAF: LEZL 062000Z 0621/0721 22009KT 9999 FEW035 TX29/0715Z TN18/0705Z

Observacions i pronòstics meteorològics de més de 4000 aeroports (METAR i TAF).

Les estacions disponibles són els punts grocs i vermells al mapa.

Posi el ratolí al punt desitjat per veure el nom de l'estació.

Feu clic per veure les observacions i els pronòstics meteorològics.

Per canviar el mapa: feu clic els botons verds amb una creu de color negre per apropar; al botó verd amb un guió per allunyar la imatge; o en les fletxes verdes per a mapes adjacents.


METAR-TAF: